createdAt,value
2019-03-31T00:01:21.912Z,98499.98
2019-03-31T00:05:27.670Z,98501.84
2019-03-31T00:09:33.395Z,98501.51
2019-03-31T00:13:41.715Z,98498.11
2019-03-31T00:17:47.436Z,98492.50
2019-03-31T00:21:53.143Z,98493.39
2019-03-31T00:25:58.851Z,98495.25
2019-03-31T00:30:05.353Z,98500.47
2019-03-31T00:34:23.754Z,98494.76
2019-03-31T00:38:29.461Z,98491.61
2019-03-31T00:42:35.159Z,98490.80
2019-03-31T00:46:40.954Z,98490.25
2019-03-31T00:50:46.734Z,98498.95
2019-03-31T00:54:52.417Z,98492.87
2019-03-31T00:58:58.264Z,98492.63
2019-03-31T01:03:04.345Z,98484.32
2019-03-31T01:07:11.409Z,98484.81
2019-03-31T01:11:21.037Z,98484.95
2019-03-31T01:15:27.094Z,98480.21
2019-03-31T01:19:33.032Z,98477.92
2019-03-31T01:23:38.776Z,98475.52
2019-03-31T01:27:46.211Z,98479.23
2019-03-31T01:31:53.207Z,98482.61
2019-03-31T01:35:58.961Z,98484.53
2019-03-31T01:40:06.770Z,98488.55
2019-03-31T01:44:12.769Z,98481.88
2019-03-31T01:48:18.543Z,98476.80
2019-03-31T01:52:24.229Z,98479.92
2019-03-31T01:56:31.575Z,98482.30
2019-03-31T02:00:38.984Z,98482.11
2019-03-31T02:04:44.687Z,98480.86
2019-03-31T02:08:50.380Z,98478.02
2019-03-31T02:12:56.061Z,98479.88
2019-03-31T02:17:01.934Z,98482.45
2019-03-31T02:21:07.707Z,98475.66
2019-03-31T02:25:13.507Z,98480.98
2019-03-31T02:29:19.202Z,98474.45
2019-03-31T02:33:24.895Z,98474.14
2019-03-31T02:37:30.596Z,98469.54
2019-03-31T02:41:36.373Z,98469.20
2019-03-31T02:45:42.072Z,98473.84
2019-03-31T02:49:47.921Z,98474.59
2019-03-31T02:53:53.667Z,98470.50
2019-03-31T02:58:00.803Z,98467.45
2019-03-31T03:02:06.842Z,98469.16
2019-03-31T03:06:15.661Z,98472.25
2019-03-31T03:10:24.135Z,98463.88
2019-03-31T03:14:34.430Z,98468.25
2019-03-31T03:18:41.214Z,98465.29
2019-03-31T03:22:46.907Z,98471.25
2019-03-31T03:26:52.625Z,98467.86
2019-03-31T03:30:58.486Z,98474.17
2019-03-31T03:35:05.047Z,98470.25
2019-03-31T03:39:10.755Z,98473.55
2019-03-31T03:43:16.510Z,98468.81
2019-03-31T03:47:22.212Z,98466.31
2019-03-31T03:51:28.407Z,98467.23
2019-03-31T03:55:34.079Z,98460.63
2019-03-31T03:59:39.780Z,98460.84
2019-03-31T04:03:45.598Z,98471.06
2019-03-31T04:07:51.298Z,98459.77
2019-03-31T04:11:57.006Z,98459.92
2019-03-31T04:16:02.701Z,98459.23
2019-03-31T04:20:08.613Z,98452.82
2019-03-31T04:24:14.304Z,98452.04
2019-03-31T04:28:20.162Z,98449.91
2019-03-31T04:32:25.865Z,98454.69
2019-03-31T04:36:31.548Z,98449.05
2019-03-31T04:40:37.257Z,98451.70
2019-03-31T04:44:42.970Z,98458.42
2019-03-31T04:48:48.736Z,98456.61
2019-03-31T04:52:54.434Z,98456.13
2019-03-31T04:57:00.124Z,98454.81
2019-03-31T05:01:05.934Z,98454.81
2019-03-31T05:05:11.633Z,98458.66
2019-03-31T05:09:17.321Z,98456.27
2019-03-31T05:13:23.016Z,98456.59
2019-03-31T05:17:28.767Z,98455.13
2019-03-31T05:21:34.513Z,98460.78
2019-03-31T05:25:40.207Z,98465.89
2019-03-31T05:29:45.898Z,98466.81
2019-03-31T05:33:51.600Z,98468.36
2019-03-31T05:37:57.281Z,98469.03
2019-03-31T05:42:02.982Z,98463.63
2019-03-31T05:46:08.734Z,98470.81
2019-03-31T05:50:14.528Z,98479.86
2019-03-31T05:54:20.231Z,98474.84
2019-03-31T05:58:25.950Z,98481.78
2019-03-31T06:02:31.706Z,98480.15
2019-03-31T06:06:37.401Z,98479.11
2019-03-31T06:10:43.112Z,98478.70
2019-03-31T06:14:48.805Z,98478.41
2019-03-31T06:18:54.500Z,98486.83
2019-03-31T06:23:00.220Z,98481.70
2019-03-31T06:27:05.934Z,98487.38
2019-03-31T06:36:17.124Z,98484.36
2019-03-31T06:40:22.890Z,98485.89
2019-03-31T06:44:28.586Z,98492.84
2019-03-31T06:48:34.301Z,98493.41
2019-03-31T06:52:40.101Z,98490.30
2019-03-31T06:56:47.263Z,98493.42
2019-03-31T07:00:53.963Z,98498.36
2019-03-31T07:05:01.058Z,98504.66
2019-03-31T07:09:08.215Z,98505.77
2019-03-31T07:13:13.990Z,98499.55
2019-03-31T07:17:19.677Z,98502.33
2019-03-31T07:21:25.385Z,98504.53
2019-03-31T07:25:31.082Z,98503.53
2019-03-31T07:29:36.795Z,98506.89
2019-03-31T07:33:42.496Z,98510.43
2019-03-31T07:37:48.209Z,98502.27
2019-03-31T07:41:54.022Z,98506.75
2019-03-31T07:45:59.798Z,98508.27
2019-03-31T07:50:11.511Z,98507.17
2019-03-31T07:54:17.212Z,98514.19
2019-03-31T07:58:22.957Z,98507.02
2019-03-31T08:02:28.707Z,98511.33
2019-03-31T08:06:34.421Z,98514.58
2019-03-31T08:10:40.128Z,98515.20
2019-03-31T08:14:48.696Z,98513.57
2019-03-31T08:18:54.390Z,98515.59
2019-03-31T08:23:00.213Z,98517.05
2019-03-31T08:27:05.950Z,98514.06
2019-03-31T08:31:11.697Z,98507.67
2019-03-31T08:35:17.867Z,98507.83
2019-03-31T08:39:23.557Z,98506.52
2019-03-31T08:43:29.313Z,98503.74
2019-03-31T08:47:35.013Z,98502.20
2019-03-31T08:51:41.801Z,98504.84
2019-03-31T08:55:47.523Z,98502.42
2019-03-31T08:59:53.195Z,98509.63
2019-03-31T09:03:59.065Z,98509.50
2019-03-31T09:08:04.820Z,98508.59
2019-03-31T09:12:10.610Z,98504.12
2019-03-31T09:16:16.319Z,98498.39
2019-03-31T09:20:22.329Z,98495.55
2019-03-31T09:24:28.041Z,98494.55
2019-03-31T09:28:34.832Z,98489.11
2019-03-31T09:32:40.748Z,98488.41
2019-03-31T09:36:46.499Z,98486.91
2019-03-31T09:40:52.236Z,98492.09
2019-03-31T09:44:57.976Z,98487.95
2019-03-31T09:49:04.038Z,98483.72
2019-03-31T09:53:09.746Z,98487.87
2019-03-31T09:57:15.457Z,98480.20
2019-03-31T10:01:21.228Z,98474.14
2019-03-31T10:05:26.931Z,98469.61
2019-03-31T10:09:33.341Z,98462.60
2019-03-31T10:13:39.067Z,98464.75
2019-03-31T10:17:44.804Z,98455.70
2019-03-31T10:21:50.556Z,98459.50
2019-03-31T10:25:56.267Z,98452.31
2019-03-31T10:30:02.031Z,98446.80
2019-03-31T10:34:07.921Z,98442.55
2019-03-31T10:38:13.661Z,98446.27
2019-03-31T10:42:20.931Z,98434.43
2019-03-31T10:46:26.792Z,98429.90
2019-03-31T10:50:32.566Z,98433.32
2019-03-31T10:54:38.261Z,98432.13
2019-03-31T10:58:43.947Z,98429.83
2019-03-31T11:02:49.691Z,98426.97
2019-03-31T11:06:59.518Z,98425.29
2019-03-31T11:11:02.875Z,98426.03
2019-03-31T11:15:09.094Z,98428.03
2019-03-31T11:19:14.783Z,98414.65
2019-03-31T11:23:22.115Z,98423.44
2019-03-31T11:27:27.827Z,98415.50
2019-03-31T11:31:33.565Z,98413.72
2019-03-31T11:35:39.272Z,98409.23
2019-03-31T11:39:45.342Z,98413.63
2019-03-31T11:43:51.062Z,98400.05
2019-03-31T11:47:56.850Z,98400.20
2019-03-31T11:52:02.553Z,98399.59
2019-03-31T11:56:08.250Z,98397.58
2019-03-31T12:00:25.128Z,98380.95
2019-03-31T12:04:31.782Z,98376.23
2019-03-31T12:08:37.496Z,98374.33
2019-03-31T12:12:43.334Z,98370.67
2019-03-31T12:16:49.053Z,98364.71
2019-03-31T12:20:55.729Z,98365.03
2019-03-31T12:25:01.406Z,98359.72
2019-03-31T12:29:07.096Z,98361.09
2019-03-31T12:33:13.838Z,98355.84
2019-03-31T12:37:19.541Z,98362.21
2019-03-31T12:41:25.229Z,98348.17
2019-03-31T12:45:31.006Z,98350.42
2019-03-31T12:49:36.702Z,98345.38
2019-03-31T12:53:42.403Z,98330.62
2019-03-31T12:57:51.517Z,98342.25
2019-03-31T13:01:55.587Z,98331.34
2019-03-31T13:06:01.478Z,98326.41
2019-03-31T13:10:07.752Z,98325.38
2019-03-31T13:14:13.458Z,98328.89
2019-03-31T13:18:19.212Z,98312.06
2019-03-31T13:22:24.925Z,98311.06
2019-03-31T13:26:30.625Z,98312.88
2019-03-31T13:30:36.497Z,98302.69
2019-03-31T13:34:42.199Z,98297.12
2019-03-31T13:38:47.894Z,98285.67
2019-03-31T13:42:53.617Z,98293.53
2019-03-31T13:46:59.389Z,98284.66
2019-03-31T13:51:05.175Z,98286.89
2019-03-31T13:55:16.626Z,98285.02
2019-03-31T13:59:22.330Z,98275.63
2019-03-31T14:04:15.906Z,98272.41
2019-03-31T14:08:26.089Z,98271.39
2019-03-31T14:13:17.280Z,98263.87
2019-03-31T14:17:24.602Z,98251.84
2019-03-31T14:22:15.026Z,98253.32
2019-03-31T14:26:20.743Z,98245.98
2019-03-31T14:30:26.542Z,98240.78
2019-03-31T14:34:32.248Z,98239.10
2019-03-31T14:38:40.248Z,98233.19
2019-03-31T14:43:18.568Z,98229.94
2019-03-31T14:47:24.334Z,98229.33
2019-03-31T14:51:30.038Z,98228.95
2019-03-31T14:55:35.997Z,98220.36
2019-03-31T14:59:41.797Z,98218.02
2019-03-31T15:04:18.034Z,98218.16
2019-03-31T15:08:23.726Z,98219.77
2019-03-31T15:12:29.403Z,98220.11
2019-03-31T15:16:35.126Z,98225.28
2019-03-31T15:20:40.826Z,98214.59
2019-03-31T15:24:46.518Z,98210.61
2019-03-31T15:28:52.361Z,98213.48
2019-03-31T15:32:58.085Z,98213.84
2019-03-31T15:37:03.775Z,98214.33
2019-03-31T15:41:21.362Z,98208.82
2019-03-31T15:45:25.648Z,98207.88
2019-03-31T15:49:31.394Z,98201.80
2019-03-31T15:53:37.108Z,98211.08
2019-03-31T15:57:44.554Z,98207.13
2019-03-31T16:01:50.258Z,98213.94
2019-03-31T16:05:55.975Z,98206.84
2019-03-31T16:10:01.728Z,98204.99
2019-03-31T16:14:17.801Z,98207.53
2019-03-31T16:18:23.516Z,98214.80
2019-03-31T16:22:29.204Z,98215.34
2019-03-31T16:26:34.924Z,98212.39
2019-03-31T16:30:40.696Z,98212.99
2019-03-31T16:34:46.421Z,98213.31
2019-03-31T16:38:52.128Z,98209.58
2019-03-31T16:42:57.834Z,98216.98
2019-03-31T16:47:03.561Z,98206.30
2019-03-31T16:51:09.403Z,98213.34
2019-03-31T16:55:15.346Z,98217.78
2019-03-31T16:59:21.130Z,98220.06
2019-03-31T17:03:26.820Z,98217.63
2019-03-31T17:07:32.540Z,98217.87
2019-03-31T17:11:38.284Z,98225.94
2019-03-31T17:15:44.176Z,98218.86
2019-03-31T17:19:49.885Z,98220.12
2019-03-31T17:23:55.649Z,98220.47
2019-03-31T17:28:01.422Z,98222.69
2019-03-31T17:33:06.162Z,98223.06
2019-03-31T17:37:12.553Z,98224.65
2019-03-31T17:41:18.268Z,98222.45
2019-03-31T17:45:23.978Z,98225.72
2019-03-31T17:49:29.719Z,98226.59
2019-03-31T17:53:35.410Z,98232.45
2019-03-31T17:57:42.501Z,98231.82
2019-03-31T18:01:48.777Z,98234.85
2019-03-31T18:05:54.497Z,98244.59
2019-03-31T18:10:00.389Z,98246.41
2019-03-31T18:15:14.693Z,98245.55
2019-03-31T18:19:20.370Z,98249.71
2019-03-31T18:24:17.023Z,98260.45
2019-03-31T18:28:22.795Z,98254.38
2019-03-31T18:32:28.504Z,98266.63
2019-03-31T18:36:52.075Z,98265.93
2019-03-31T18:40:57.876Z,98280.86
2019-03-31T18:45:18.847Z,98283.39
2019-03-31T18:49:24.623Z,98296.00
2019-03-31T18:54:15.021Z,98293.11
2019-03-31T18:58:26.011Z,98294.23
2019-03-31T19:02:34.583Z,98311.39
2019-03-31T19:06:40.085Z,98313.90
2019-03-31T19:11:15.555Z,98309.59
2019-03-31T19:15:34.843Z,98315.00
2019-03-31T19:19:50.796Z,98324.58
2019-03-31T19:24:19.321Z,98332.54
2019-03-31T19:28:29.406Z,98328.31
2019-03-31T19:33:28.774Z,98331.95
2019-03-31T19:37:36.287Z,98326.50
2019-03-31T19:42:36.508Z,98344.94
2019-03-31T19:47:16.621Z,98343.17
2019-03-31T19:51:35.536Z,98349.89
2019-03-31T19:55:42.108Z,98350.95
2019-03-31T20:00:19.494Z,98355.39
2019-03-31T20:04:26.917Z,98363.50
2019-03-31T20:08:34.251Z,98360.05
2019-03-31T20:13:15.688Z,98363.50
2019-03-31T20:17:28.575Z,98367.91
2019-03-31T20:21:50.713Z,98372.21
2019-03-31T20:26:18.939Z,98375.83
2019-03-31T20:30:44.164Z,98382.91
2019-03-31T20:35:16.136Z,98384.38
2019-03-31T20:39:23.461Z,98394.75
2019-03-31T20:43:31.882Z,98394.46
2019-03-31T20:47:37.585Z,98392.36
2019-03-31T20:51:44.308Z,98391.00
2019-03-31T20:55:49.968Z,98396.88
2019-03-31T21:00:19.613Z,98392.50
2019-03-31T21:04:25.479Z,98399.25
2019-03-31T21:08:31.173Z,98406.09
2019-03-31T21:12:36.917Z,98416.53
2019-03-31T21:16:42.656Z,98403.91
2019-03-31T21:21:15.246Z,98410.45
2019-03-31T21:25:20.972Z,98416.80
2019-03-31T21:29:26.691Z,98408.82
2019-03-31T21:33:32.426Z,98418.47
2019-03-31T21:37:38.197Z,98423.34
2019-03-31T21:41:43.892Z,98426.07
2019-03-31T21:46:16.633Z,98424.16
2019-03-31T21:50:22.882Z,98428.98
2019-03-31T21:54:28.608Z,98427.20
2019-03-31T21:58:34.323Z,98429.19
2019-03-31T22:02:40.225Z,98437.72
2019-03-31T22:06:46.012Z,98432.30
2019-03-31T22:10:51.724Z,98431.55
2019-03-31T22:15:18.477Z,98436.61
2019-03-31T22:19:24.174Z,98427.95
2019-03-31T22:23:31.502Z,98426.23
2019-03-31T23:15:15.184Z,98421.50
2019-03-31T23:24:30.693Z,98419.31
2019-03-31T23:28:38.023Z,98418.88
2019-03-31T23:32:43.746Z,98417.00
2019-03-31T23:36:49.452Z,98418.22
2019-03-31T23:40:55.165Z,98432.33
2019-03-31T23:45:00.909Z,98428.77
2019-03-31T23:49:06.656Z,98435.30
2019-03-31T23:53:12.377Z,98425.08
2019-03-31T23:57:18.068Z,98428.02
